logo tempoitalia

Diretta Meteo Mildura, Australialunedì 31 agosto ore 15:00

Mappa
Sereno 22 °C Sereno 24 Ore: T.min 4 T.max 22
Ponente Nord Km/h 5.5 Punto di rugiada: 4 °C Umidità: 30% Visibilità: 10 Km
Il sole sorge alle: 06:51 Il sole tramonta alle: 18:12
31 Agosto 2026 15:00 tempo osservato: Sereno Sereno 22 30 1027 vento: Nord N 5.5
31 Agosto 2026 14:30 tempo osservato: Sereno Sereno 22 30 1028 vento: Nord N 5.5
31 Agosto 2026 14:00 tempo osservato: Sereno Sereno 22 30 1028 vento: Nord NE 7.4
31 Agosto 2026 13:30 tempo osservato: Sereno Sereno 22 35 1028 vento: Nord N/NO 7.4
31 Agosto 2026 13:00 tempo osservato: Sereno Sereno 21 37 1029 vento: Nord E/SE 7.4
31 Agosto 2026 12:30 tempo osservato: Sereno Sereno 21 43 1029 vento: Nord N 7.4
31 Agosto 2026 12:00 tempo osservato: Sereno Sereno 20 45 1030 vento: Nord N 9.3
31 Agosto 2026 11:30 tempo osservato: Sereno Sereno 19 55 1030 vento: Nord N 7.4
31 Agosto 2026 11:00 tempo osservato: Sereno Sereno 18 59 1031 vento: Nord N 9.3
31 Agosto 2026 10:30 tempo osservato: Sereno Sereno 17 67 1031 vento: Nord N 7.4
31 Agosto 2026 10:00 tempo osservato: Sereno Sereno 15 76 1031 vento: Nord N 3.7
31 Agosto 2026 09:30 tempo osservato: Sereno Sereno 14 76 1031 vento: Nord N 5.5
31 Agosto 2026 09:00 tempo osservato: Sereno Sereno 12 81 1031 vento: Nord E 7.4
31 Agosto 2026 08:30 tempo osservato: Sereno Sereno 10 100 1031 vento: Nord SE 7.4
31 Agosto 2026 08:00 tempo osservato: Sereno Sereno 8 100 1031 vento: Nord N 1.8
31 Agosto 2026 07:30 tempo osservato: Sereno Sereno 5 100 1031 vento: Nord N 5.5
31 Agosto 2026 07:00 tempo osservato: Sereno Sereno 4 100 1031 vento: Nord S/SO 9.3
31 Agosto 2026 06:30 tempo osservato: Sereno Sereno 4 100 1031 vento: Nord N 0
31 Agosto 2026 06:00 tempo osservato: Sereno Sereno 5 100 1030 vento: Nord N 5.5
31 Agosto 2026 05:30 tempo osservato: Sereno Sereno 5 100 1031 vento: Nord S 7.4
31 Agosto 2026 05:00 tempo osservato: Sereno Sereno 5 100 1030 vento: Nord S 7.4
31 Agosto 2026 04:30 tempo osservato: Sereno Sereno 5 100 1030 vento: Nord N 5.5
31 Agosto 2026 04:00 tempo osservato: Sereno Sereno 5 100 1030 vento: Nord S 7.4
31 Agosto 2026 03:30 tempo osservato: Sereno Sereno 6 100 1030 vento: Nord N 0
31 Agosto 2026 03:00 tempo osservato: Sereno Sereno 6 100 1031 vento: Nord S 7.4
31 Agosto 2026 02:30 tempo osservato: Sereno Sereno 6 93 1031 vento: Nord S 9.3
31 Agosto 2026 02:00 tempo osservato: Sereno Sereno 6 93 1031 vento: Nord S 7.4
31 Agosto 2026 01:30 tempo osservato: Sereno Sereno 7 93 1031 vento: Nord S 7.4
31 Agosto 2026 01:00 tempo osservato: Sereno Sereno 6 100 1031 vento: Nord S/SO 9.3
31 Agosto 2026 00:30 tempo osservato: Sereno Sereno 7 93 1031 vento: Nord S/SO 7.4
31 Agosto 2026 00:00 tempo osservato: Sereno Sereno 7 87 1031 vento: Nord S/SO 9.3
30 Agosto 2026 23:30 tempo osservato: Sereno Sereno 7 87 1031 vento: Nord N 0
30 Agosto 2026 23:00 tempo osservato: Sereno Sereno 8 87 1032 vento: Nord N 0
30 Agosto 2026 22:30 tempo osservato: Sereno Sereno 9 81 1032 vento: Nord N 0
30 Agosto 2026 22:00 tempo osservato: Sereno Sereno 10 81 1031 vento: Nord N 0
30 Agosto 2026 21:30 tempo osservato: Sereno Sereno 11 71 1031 vento: Nord N 5.5
30 Agosto 2026 21:00 tempo osservato: Sereno Sereno 11 71 1031 vento: Nord S/SE 9.3
30 Agosto 2026 20:30 tempo osservato: Sereno Sereno 13 62 1031 vento: Nord S 9.3
30 Agosto 2026 20:00 tempo osservato: Sereno Sereno 13 62 1031 vento: Nord S 9.3
30 Agosto 2026 19:30 tempo osservato: Sereno Sereno 14 58 1031 vento: Nord S 9.3
30 Agosto 2026 19:00 tempo osservato: Sereno Sereno 15 54 1031 vento: Nord S 7.4
30 Agosto 2026 18:30 tempo osservato: Sereno Sereno 17 45 1031 vento: Nord S 9.3
30 Agosto 2026 18:00 tempo osservato: Sereno Sereno 18 42 1030 vento: Nord N 5.5
30 Agosto 2026 17:30 tempo osservato: Sereno Sereno 20 34 1030 vento: Nord S/SE 11.1
30 Agosto 2026 17:00 tempo osservato: Sereno Sereno 20 34 1030 vento: Nord S 11.1
30 Agosto 2026 16:30 tempo osservato: Sereno Sereno 21 32 1031 vento: Nord S 13
30 Agosto 2026 16:00 tempo osservato: Sereno Sereno 21 35 1031 vento: Nord S 11.1